Time;durP1;ratioP1;P1;durP2;ratioP2;P2;SDS_P1;SDS_P2;PMS_P1;PMS_P2;Temp;Humidity;BMP_temperature;BMP_pressure;BME280_temperature;BME280_humidity;BME280_pressure;Samples;Min_cycle;Max_cycle;Signal;HPM_P1;HPM_P2
2022/10/26 00:01:29;;;;;;;9.95;7.15;;;;;;;11.53;90.95;101245.97;5033208;28;20116;-53
2022/10/26 00:03:57;;;;;;;11.35;7.65;;;;;;;11.54;90.98;101245.03;5031667;28;20053;-53
2022/10/26 00:06:27;;;;;;;10.52;7.20;;;;;;;11.58;90.43;101239.41;5032393;28;20033;-53
2022/10/26 00:08:54;;;;;;;12.65;7.32;;;;;;;11.60;90.77;101240.19;5030296;28;20090;-53
2022/10/26 00:11:20;;;;;;;13.13;6.97;;;;;;;11.56;90.67;101235.16;5036815;28;20132;-54
2022/10/26 00:13:48;;;;;;;11.98;6.93;;;;;;;11.58;90.66;101219.91;5037435;28;20037;-52
2022/10/26 00:16:17;;;;;;;11.50;7.30;;;;;;;11.60;90.77;101226.84;5034708;28;20029;-53
2022/10/26 00:18:43;;;;;;;9.43;7.20;;;;;;;11.59;90.48;101225.16;5034304;28;20395;-52
2022/10/26 00:21:09;;;;;;;8.70;7.15;;;;;;;11.58;90.79;101223.44;5030926;28;20025;-55
2022/10/26 00:23:35;;;;;;;10.00;7.38;;;;;;;11.53;91.37;101216.66;5039576;28;20032;-53
2022/10/26 00:26:01;;;;;;;12.65;6.78;;;;;;;11.57;91.15;101216.41;5031673;28;20404;-54
2022/10/26 00:28:27;;;;;;;10.07;6.70;;;;;;;11.59;90.77;101211.00;5043600;28;20032;-53
2022/10/26 00:30:53;;;;;;;11.07;7.20;;;;;;;11.62;90.80;101200.13;5038628;28;20472;-53
2022/10/26 00:33:18;;;;;;;14.85;7.72;;;;;;;11.62;90.91;101194.81;5048279;28;20076;-53
2022/10/26 00:35:52;;;;;;;11.57;7.18;;;;;;;11.69;90.51;101187.28;5051981;28;20036;-53
2022/10/26 00:38:17;;;;;;;10.85;7.28;;;;;;;11.58;90.67;101194.13;5053665;28;20032;-54
2022/10/26 00:40:45;;;;;;;7.78;6.70;;;;;;;11.60;90.92;101218.03;5040458;28;20048;-54
2022/10/26 00:43:34;;;;;;;13.35;7.15;;;;;;;11.56;90.89;101208.50;5034642;28;20048;-53
2022/10/26 00:46:01;;;;;;;10.75;6.85;;;;;;;11.64;91.18;101213.34;5040939;28;20060;-54
2022/10/26 00:48:51;;;;;;;13.18;7.25;;;;;;;11.63;91.04;101212.50;5045661;28;20509;-53
2022/10/26 00:51:49;;;;;;;11.05;6.60;;;;;;;11.68;91.05;101217.56;5033712;28;20376;-54
2022/10/26 00:54:17;;;;;;;11.05;6.28;;;;;;;11.63;91.34;101211.66;5039396;28;20065;-53
2022/10/26 00:56:44;;;;;;;15.68;6.53;;;;;;;11.64;91.43;101208.88;5050681;28;20064;-52
2022/10/26 00:59:12;;;;;;;11.73;7.13;;;;;;;11.63;91.27;101207.16;5036891;28;20044;-54
2022/10/26 01:01:40;;;;;;;9.77;6.45;;;;;;;11.68;90.97;101197.09;5039533;28;20039;-52
2022/10/26 01:04:08;;;;;;;9.38;6.68;;;;;;;11.70;91.65;101189.00;5051073;28;20472;-54
2022/10/26 01:06:36;;;;;;;12.25;7.03;;;;;;;11.72;91.08;101192.41;5033894;28;20528;-54
2022/10/26 01:09:02;;;;;;;12.13;6.78;;;;;;;11.76;91.69;101191.25;5037990;28;20029;-52
2022/10/26 01:11:27;;;;;;;9.65;6.50;;;;;;;11.77;91.82;101196.50;5040575;28;20048;-53
2022/10/26 01:13:54;;;;;;;9.65;6.38;;;;;;;11.76;91.29;101188.59;5043487;28;20033;-52
2022/10/26 01:16:55;;;;;;;13.80;6.78;;;;;;;11.79;91.20;101196.41;5050090;28;20107;-54
2022/10/26 01:19:30;;;;;;;11.13;6.25;;;;;;;11.77;91.03;101183.19;5045683;28;20040;-52
2022/10/26 01:22:18;;;;;;;12.25;7.28;;;;;;;11.79;91.14;101175.09;5050134;28;20039;-53
2022/10/26 01:24:57;;;;;;;11.90;7.38;;;;;;;11.77;91.17;101177.84;5040790;28;20484;-54
2022/10/26 01:27:35;;;;;;;10.45;7.57;;;;;;;11.79;91.16;101169.75;5047674;28;20438;-52
2022/10/26 01:30:14;;;;;;;10.60;6.93;;;;;;;11.80;91.07;101168.81;5054053;28;20036;-53
2022/10/26 01:32:45;;;;;;;14.38;8.07;;;;;;;11.79;90.79;101167.97;5041664;28;20125;-52
2022/10/26 01:35:16;;;;;;;12.35;7.45;;;;;;;11.74;91.48;101166.53;5034942;28;20552;-54
2022/10/26 01:37:51;;;;;;;11.45;7.10;;;;;;;11.75;91.31;101165.59;5034146;28;20480;-52
2022/10/26 01:40:27;;;;;;;9.98;7.22;;;;;;;11.77;91.26;101161.03;5033231;28;20117;-52
2022/10/26 01:42:56;;;;;;;11.93;7.55;;;;;;;11.76;91.29;101169.94;5036604;28;20025;-53
2022/10/26 01:45:24;;;;;;;9.15;6.88;;;;;;;11.77;91.20;101164.53;5040513;28;20108;-51
2022/10/26 01:47:51;;;;;;;13.55;6.88;;;;;;;11.66;91.47;101156.34;5037876;28;20021;-53
2022/10/26 01:50:21;;;;;;;12.90;7.28;;;;;;;11.73;91.16;101157.66;5033094;28;20044;-54
2022/10/26 01:52:50;;;;;;;10.95;7.70;;;;;;;11.64;92.00;101144.09;5034630;28;20038;-53
2022/10/26 01:55:40;;;;;;;9.85;7.82;;;;;;;11.73;91.31;101160.34;5033105;28;20040;-54
2022/10/26 01:58:30;;;;;;;13.93;8.27;;;;;;;11.72;91.42;101157.78;5039337;28;20487;-53
2022/10/26 02:01:04;;;;;;;12.68;8.02;;;;;;;11.64;91.28;101149.41;5045797;28;20033;-50
2022/10/26 02:03:48;;;;;;;12.55;8.00;;;;;;;11.63;91.70;101161.03;5047442;28;20583;-52
2022/10/26 02:06:17;;;;;;;15.32;8.00;;;;;;;11.63;91.99;101150.38;5044257;28;20049;-54
2022/10/26 02:09:03;;;;;;;14.02;8.25;;;;;;;11.68;91.94;101143.81;5045406;28;20061;-53
2022/10/26 02:11:39;;;;;;;10.55;7.97;;;;;;;11.69;91.68;101139.31;5032303;28;20458;-51
2022/10/26 02:14:17;;;;;;;9.93;7.65;;;;;;;11.66;91.94;101129.72;5046996;28;20107;-53
2022/10/26 02:16:55;;;;;;;14.88;8.38;;;;;;;11.67;91.56;101122.56;5035907;28;20049;-51
2022/10/26 02:19:43;;;;;;;15.43;7.38;;;;;;;11.72;91.90;101137.31;5036395;28;20026;-52
2022/10/26 02:22:17;;;;;;;13.13;8.05;;;;;;;11.69;91.62;101129.53;5041010;28;20027;-52
2022/10/26 02:24:47;;;;;;;10.93;7.85;;;;;;;11.71;91.29;101132.09;5037182;28;20392;-52
2022/10/26 02:27:19;;;;;;;14.52;7.85;;;;;;;11.70;91.94;101131.22;5045044;28;20111;-54
2022/10/26 02:29:49;;;;;;;8.23;7.18;;;;;;;11.73;92.09;101133.69;5035884;28;20075;-53
2022/10/26 02:32:17;;;;;;;9.40;6.63;;;;;;;11.75;91.88;101125.63;5041288;28;20029;-53
2022/10/26 02:34:45;;;;;;;9.80;6.97;;;;;;;11.77;91.57;101124.56;5040526;28;20155;-51
2022/10/26 02:37:16;;;;;;;10.35;6.75;;;;;;;11.77;91.80;101124.56;5046521;28;20086;-51
2022/10/26 02:39:44;;;;;;;11.80;6.90;;;;;;;11.76;92.25;101122.84;5035521;28;20396;-54
2022/10/26 02:42:12;;;;;;;12.85;6.63;;;;;;;11.71;91.61;101113.44;5039000;28;20476;-54
2022/10/26 02:44:47;;;;;;;10.50;6.72;;;;;;;11.75;92.08;101115.81;5041823;28;20072;-53
2022/10/26 02:47:13;;;;;;;9.73;6.45;;;;;;;11.81;91.41;101120.75;5045892;28;20517;-53
2022/10/26 02:49:39;;;;;;;13.43;6.68;;;;;;;11.79;91.77;101112.00;5033448;28;20051;-52
2022/10/26 02:52:17;;;;;;;12.07;6.05;;;;;;;11.80;91.75;101107.53;5032544;28;20428;-52
2022/10/26 02:54:53;;;;;;;10.32;5.72;;;;;;;11.79;91.80;101106.69;5041480;28;20477;-53
2022/10/26 02:57:40;;;;;;;8.48;5.72;;;;;;;11.78;91.70;101112.09;5031968;28;20029;-51
2022/10/26 03:00:11;;;;;;;8.55;5.85;;;;;;;11.73;91.87;101109.69;5032207;28;20025;-53
2022/10/26 03:02:37;;;;;;;7.97;5.20;;;;;;;11.79;91.83;101114.69;5033084;28;20029;-53
2022/10/26 03:05:10;;;;;;;10.15;5.38;;;;;;;11.82;91.79;101121.59;5043569;28;20124;-53
2022/10/26 03:07:43;;;;;;;9.63;5.75;;;;;;;11.80;91.44;101112.84;5034805;28;20025;-53
2022/10/26 03:10:11;;;;;;;10.82;5.80;;;;;;;11.82;91.53;101109.16;5039426;28;20043;-54
2022/10/26 03:12:36;;;;;;;8.25;5.30;;;;;;;11.85;91.33;101108.09;5050718;28;20033;-52
2022/10/26 03:15:03;;;;;;;10.65;5.30;;;;;;;11.85;91.38;101104.56;5051309;28;20107;-54
2022/10/26 03:17:31;;;;;;;10.18;5.47;;;;;;;11.88;91.26;101101.72;5046252;28;20029;-53
2022/10/26 03:19:57;;;;;;;9.10;4.93;;;;;;;11.86;91.77;101096.50;5035322;28;20061;-53
2022/10/26 03:22:22;;;;;;;8.50;5.00;;;;;;;11.84;91.46;101109.03;5030519;28;20060;-52
2022/10/26 03:24:48;;;;;;;12.27;5.00;;;;;;;11.78;91.36;101090.78;5031384;28;20030;-53
2022/10/26 03:27:14;;;;;;;7.32;4.85;;;;;;;11.77;91.27;101089.91;5034917;28;20037;-52
2022/10/26 03:29:41;;;;;;;6.63;4.93;;;;;;;11.82;91.96;101101.16;5052216;28;20027;-53
2022/10/26 03:32:07;;;;;;;7.82;4.68;;;;;;;11.79;91.72;101098.69;5046841;28;20033;-54
2022/10/26 03:34:35;;;;;;;12.35;4.72;;;;;;;11.81;91.50;101102.09;5032055;28;20025;-53
2022/10/26 03:37:00;;;;;;;7.38;4.78;;;;;;;11.86;91.70;101096.50;5036713;28;20033;-53
2022/10/26 03:39:26;;;;;;;9.02;4.90;;;;;;;11.85;91.51;101091.22;5046621;28;20032;-53
2022/10/26 03:41:51;;;;;;;7.80;5.00;;;;;;;11.83;91.46;101097.53;5048869;28;20056;-53
2022/10/26 03:44:16;;;;;;;6.00;4.25;;;;;;;11.85;91.23;101091.22;5044734;28;20129;-53
2022/10/26 03:46:42;;;;;;;7.78;4.68;;;;;;;11.86;91.35;101098.31;5045475;28;20029;-53
2022/10/26 03:49:10;;;;;;;12.07;4.40;;;;;;;11.84;91.52;101090.38;5021551;28;20468;-53
2022/10/26 03:51:35;;;;;;;5.15;4.10;;;;;;;11.86;91.70;101098.31;5036521;28;20540;-53
2022/10/26 03:54:00;;;;;;;7.43;4.25;;;;;;;11.78;91.49;101086.28;5047918;28;20112;-54
2022/10/26 03:56:26;;;;;;;6.93;4.28;;;;;;;11.85;91.75;101089.44;5039886;28;20033;-53
2022/10/26 03:58:51;;;;;;;8.00;4.38;;;;;;;11.83;91.74;101086.00;5046172;28;20492;-52
2022/10/26 04:01:17;;;;;;;11.15;4.97;;;;;;;11.80;92.00;101089.72;5037812;28;20040;-53
2022/10/26 04:03:42;;;;;;;12.85;4.65;;;;;;;11.80;91.91;101088.88;5047301;28;20100;-54
2022/10/26 04:06:07;;;;;;;7.38;4.10;;;;;;;11.80;91.98;101097.72;5042173;28;20503;-54
2022/10/26 04:08:33;;;;;;;10.25;4.60;;;;;;;11.77;92.05;101091.75;5051500;28;20029;-54
2022/10/26 04:10:59;;;;;;;9.13;5.43;;;;;;;11.77;92.05;101097.91;5047420;28;20049;-52
2022/10/26 04:13:24;;;;;;;8.60;4.32;;;;;;;11.72;92.63;101089.34;5048435;28;20045;-53
2022/10/26 04:15:49;;;;;;;7.15;4.80;;;;;;;11.78;92.58;101096.94;5036004;28;20057;-53
2022/10/26 04:18:15;;;;;;;11.90;4.70;;;;;;;11.80;91.92;101100.38;5043750;28;20029;-54
2022/10/26 04:20:41;;;;;;;9.50;4.68;;;;;;;11.82;92.19;101084.28;5031435;28;20037;-54
2022/10/26 04:23:13;;;;;;;6.57;4.20;;;;;;;11.79;92.60;101085.38;5041841;28;20047;-53
2022/10/26 04:25:39;;;;;;;14.95;4.97;;;;;;;11.85;92.33;101085.91;5031658;28;20053;-53
2022/10/26 04:28:06;;;;;;;9.00;4.65;;;;;;;11.81;92.59;101085.25;5046797;28;20191;-52
2022/10/26 04:30:32;;;;;;;10.23;4.70;;;;;;;11.85;92.50;101088.56;5031550;28;20029;-53
2022/10/26 04:32:58;;;;;;;10.68;4.63;;;;;;;11.84;92.37;101071.72;5039869;28;20025;-54
2022/10/26 04:35:23;;;;;;;7.95;4.55;;;;;;;11.87;92.44;101081.38;5041307;28;20030;-51
2022/10/26 04:37:49;;;;;;;7.70;4.28;;;;;;;11.90;92.56;101089.16;5050460;28;20040;-53
2022/10/26 04:40:14;;;;;;;8.95;4.40;;;;;;;11.84;92.51;101071.72;5048348;28;20033;-54
2022/10/26 04:42:46;;;;;;;9.77;4.55;;;;;;;11.85;92.76;101077.91;5049372;28;20060;-54
2022/10/26 04:45:13;;;;;;;9.10;4.28;;;;;;;11.85;93.10;101072.56;5061899;28;20391;-54
2022/10/26 04:47:39;;;;;;;7.63;4.57;;;;;;;11.89;92.70;101077.66;5036809;28;20033;-54
2022/10/26 04:50:06;;;;;;;10.50;5.10;;;;;;;11.91;92.74;101082.88;5039020;28;20055;-54
2022/10/26 04:52:32;;;;;;;9.73;4.63;;;;;;;11.91;92.74;101080.19;5039118;28;20021;-52
2022/10/26 04:54:57;;;;;;;8.88;5.13;;;;;;;11.91;93.02;101080.19;5044626;28;20029;-54
2022/10/26 04:57:23;;;;;;;9.05;4.40;;;;;;;11.93;92.85;101080.97;5035389;28;20029;-54
2022/10/26 04:59:48;;;;;;;11.50;4.88;;;;;;;11.94;93.04;101088.88;5031870;28;20366;-51
2022/10/26 05:02:13;;;;;;;10.60;4.68;;;;;;;11.93;93.16;101086.28;5029158;28;20026;-53
2022/10/26 05:04:39;;;;;;;10.57;4.82;;;;;;;11.97;93.17;101086.00;5025794;28;20033;-53
2022/10/26 05:07:06;;;;;;;8.40;5.28;;;;;;;11.97;93.78;101082.47;5050155;28;20090;-54
2022/10/26 05:09:32;;;;;;;7.95;4.47;;;;;;;11.98;93.10;101084.19;5031554;28;20492;-52
2022/10/26 05:11:57;;;;;;;10.63;5.00;;;;;;;11.95;93.34;101082.56;5033553;28;20052;-53
2022/10/26 05:14:23;;;;;;;9.38;4.60;;;;;;;11.97;94.13;101094.00;5036800;28;20084;-52
2022/10/26 05:16:50;;;;;;;9.27;4.30;;;;;;;12.00;93.46;101098.25;5036206;28;20032;-52
2022/10/26 05:19:15;;;;;;;9.90;4.93;;;;;;;11.99;93.61;101096.56;5042503;28;20100;-54
2022/10/26 05:21:43;;;;;;;7.40;4.32;;;;;;;12.01;94.43;101097.31;5030258;28;20152;-53
2022/10/26 05:24:08;;;;;;;7.80;4.78;;;;;;;12.01;94.52;101094.66;5042510;28;20029;-52
2022/10/26 05:26:34;;;;;;;7.88;4.40;;;;;;;11.98;94.60;101094.84;5033040;28;20112;-54
2022/10/26 05:28:59;;;;;;;6.30;4.38;;;;;;;12.01;94.05;101100.00;5034277;28;20477;-53
2022/10/26 05:31:24;;;;;;;7.68;4.70;;;;;;;11.99;93.94;101099.22;5037907;28;20112;-53
2022/10/26 05:33:50;;;;;;;7.45;4.32;;;;;;;12.01;94.38;101097.31;5051160;28;20037;-53
2022/10/26 05:36:17;;;;;;;10.15;4.25;;;;;;;12.01;93.76;101100.84;5045531;28;20028;-53
2022/10/26 05:38:43;;;;;;;9.27;5.28;;;;;;;12.03;93.58;101096.28;5038575;28;20040;-53
2022/10/26 05:41:08;;;;;;;9.05;4.00;;;;;;;12.01;93.93;101089.31;5036669;28;20037;-54
2022/10/26 05:43:34;;;;;;;10.57;4.22;;;;;;;12.09;93.48;101094.13;5047504;28;20032;-53
2022/10/26 05:45:59;;;;;;;9.80;4.68;;;;;;;12.09;93.25;101100.34;5052975;28;20036;-53
2022/10/26 05:48:24;;;;;;;11.70;3.88;;;;;;;12.15;92.81;101096.44;5045488;28;20492;-54
2022/10/26 05:50:52;;;;;;;8.35;4.40;;;;;;;12.19;92.63;101104.09;5034965;28;20064;-53
2022/10/26 05:53:18;;;;;;;6.55;3.85;;;;;;;12.16;92.39;101103.47;5033574;28;20112;-53
2022/10/26 05:55:48;;;;;;;11.10;4.95;;;;;;;12.24;92.43;101111.81;5015905;28;20108;-53
2022/10/26 05:58:15;;;;;;;13.63;4.07;;;;;;;12.22;92.81;101111.06;5034275;28;20114;-53
2022/10/26 06:01:06;;;;;;;9.25;3.90;;;;;;;12.20;92.24;101099.63;5037246;28;20435;-53
2022/10/26 06:03:37;;;;;;;9.00;4.13;;;;;;;12.25;92.57;101111.69;5037485;28;20522;-51
2022/10/26 06:06:03;;;;;;;10.65;4.70;;;;;;;12.27;92.25;101112.47;5053104;28;20483;-51
2022/10/26 06:08:29;;;;;;;6.82;4.05;;;;;;;12.22;91.95;101113.72;5049911;28;20102;-52
2022/10/26 06:10:58;;;;;;;7.07;4.10;;;;;;;12.27;92.03;101117.81;5050534;28;20179;-54
2022/10/26 06:13:23;;;;;;;10.20;4.40;;;;;;;12.30;91.73;101130.06;5047165;28;20075;-54
2022/10/26 06:16:20;;;;;;;5.70;4.18;;;;;;;12.34;91.55;101128.06;5040044;28;20024;-53
2022/10/26 06:19:05;;;;;;;7.60;3.85;;;;;;;12.33;91.55;101132.53;5053530;28;20476;-51
2022/10/26 06:21:40;;;;;;;7.10;4.65;;;;;;;12.32;91.66;101133.47;5052939;28;20495;-53
2022/10/26 06:24:17;;;;;;;7.72;4.38;;;;;;;12.21;92.19;101112.03;5047434;28;20543;-53
2022/10/26 06:26:52;;;;;;;4.88;4.30;;;;;;;12.25;92.33;101122.38;5053017;28;20606;-52
2022/10/26 06:29:48;;;;;;;7.82;4.10;;;;;;;12.19;92.65;101122.78;5034640;28;20048;-52
2022/10/26 06:32:15;;;;;;;9.00;4.40;;;;;;;12.19;92.42;101121.91;5051700;28;20029;-54
2022/10/26 06:34:47;;;;;;;7.18;4.47;;;;;;;12.15;92.55;101121.28;5046921;28;20067;-53
2022/10/26 06:37:13;;;;;;;8.27;4.30;;;;;;;12.13;92.96;101112.50;5031448;28;20037;-51
2022/10/26 06:39:43;;;;;;;8.70;4.18;;;;;;;12.13;93.28;101112.50;5035515;28;20033;-52
2022/10/26 06:42:10;;;;;;;8.77;4.20;;;;;;;12.08;93.46;101109.28;5032944;28;20428;-51
2022/10/26 06:44:36;;;;;;;10.10;4.30;;;;;;;12.08;93.98;101116.44;5032602;28;20025;-52
2022/10/26 06:47:26;;;;;;;11.95;4.65;;;;;;;12.12;94.07;101107.25;5031902;28;20034;-52
2022/10/26 06:49:57;;;;;;;;;;;;;;;12.20;93.14;101107.63;5034114;28;20451;-52
2022/10/26 06:52:32;;;;;;;7.80;4.60;;;;;;;12.19;93.72;101116.59;5032480;28;19913;-52
2022/10/26 06:54:59;;;;;;;8.05;4.22;;;;;;;12.21;93.73;101110.19;5031686;28;20120;-53
2022/10/26 06:57:33;;;;;;;10.65;4.50;;;;;;;12.21;94.24;101123.53;5032746;28;20025;-53
2022/10/26 07:00:04;;;;;;;8.55;4.88;;;;;;;12.25;93.80;101118.84;5047274;28;20161;-52
2022/10/26 07:02:29;;;;;;;8.30;5.13;;;;;;;12.24;94.29;101114.47;5051256;28;20025;-52
2022/10/26 07:04:54;;;;;;;11.70;5.22;;;;;;;12.24;94.08;101106.47;5032843;28;20107;-52
2022/10/26 07:07:25;;;;;;;5.95;4.10;;;;;;;12.15;94.18;101099.94;5052415;28;20045;-52
2022/10/26 07:09:51;;;;;;;9.52;4.78;;;;;;;12.27;93.53;101127.63;5042368;28;20396;-53
2022/10/26 07:12:16;;;;;;;9.57;4.72;;;;;;;12.15;94.14;101123.94;5030769;28;20042;-53
2022/10/26 07:14:42;;;;;;;10.07;4.40;;;;;;;12.19;94.45;101130.78;5038511;28;20029;-53
2022/10/26 07:17:08;;;;;;;9.95;5.18;;;;;;;12.25;93.90;101141.03;5035828;28;20082;-53
2022/10/26 07:19:34;;;;;;;11.77;5.03;;;;;;;12.24;94.29;101147.34;5048569;28;20507;-53
2022/10/26 07:22:00;;;;;;;6.80;4.35;;;;;;;12.25;94.39;101140.19;5038774;28;20033;-51
2022/10/26 07:24:26;;;;;;;7.13;4.90;;;;;;;12.28;94.28;101142.66;5037817;28;20026;-52
2022/10/26 07:26:55;;;;;;;7.57;4.80;;;;;;;12.36;94.06;101150.16;5032223;28;20029;-53
2022/10/26 07:29:25;;;;;;;;;;;;;;;12.41;93.44;101153.34;5032662;28;20052;-53
2022/10/26 07:31:51;;;;;;;9.88;4.53;;;;;;;12.47;93.47;101152.94;5032224;28;20027;-54
2022/10/26 07:34:17;;;;;;;5.47;4.28;;;;;;;12.54;93.34;101158.75;5031808;28;20060;-53
2022/10/26 07:36:43;;;;;;;16.42;4.40;;;;;;;12.53;93.69;101165.03;5036701;28;20060;-50
2022/10/26 07:39:08;;;;;;;10.38;4.78;;;;;;;12.58;93.41;101152.25;5032362;28;20030;-54
2022/10/26 07:41:34;;;;;;;6.13;4.53;;;;;;;12.66;93.46;101160.59;5031779;28;20480;-52
2022/10/26 07:44:02;;;;;;;12.45;5.10;;;;;;;12.71;93.21;101163.84;5031277;28;20072;-52
2022/10/26 07:46:27;;;;;;;11.88;4.72;;;;;;;12.72;92.99;101166.38;5032908;28;20385;-54
2022/10/26 07:48:56;;;;;;;9.77;4.88;;;;;;;12.84;92.95;101194.06;5033417;28;20078;-51
2022/10/26 07:51:21;;;;;;;5.75;4.28;;;;;;;12.92;92.93;101194.41;5037208;28;20037;-51
2022/10/26 07:53:47;;;;;;;4.55;3.38;;;;;;;12.90;92.72;101177.63;5041488;28;20033;-54
2022/10/26 07:56:16;;;;;;;6.75;4.43;;;;;;;13.05;92.46;101194.44;5046918;28;20036;-51
2022/10/26 07:58:41;;;;;;;5.25;4.50;;;;;;;13.09;92.41;101193.28;5046477;28;20029;-52
2022/10/26 08:01:12;;;;;;;8.15;4.25;;;;;;;13.02;92.01;101170.59;5035955;28;20044;-54
2022/10/26 08:03:39;;;;;;;7.80;4.43;;;;;;;13.24;92.33;101201.22;5039711;28;20032;-53
2022/10/26 08:06:05;;;;;;;8.82;4.00;;;;;;;13.24;92.02;101199.38;5048106;28;20033;-52
2022/10/26 08:08:31;;;;;;;6.03;4.20;;;;;;;13.31;92.41;101203.38;5050905;28;20139;-54
2022/10/26 08:10:57;;;;;;;8.48;4.57;;;;;;;13.36;91.99;101208.41;5049078;28;20051;-54
2022/10/26 08:13:23;;;;;;;5.60;4.40;;;;;;;13.46;91.81;101197.94;5049054;28;20025;-54
2022/10/26 08:15:49;;;;;;;7.43;4.18;;;;;;;13.60;91.24;101203.16;5050520;28;20048;-54
2022/10/26 08:18:16;;;;;;;7.53;4.10;;;;;;;13.66;90.77;101193.88;5039798;28;20057;-53
2022/10/26 08:20:42;;;;;;;14.23;4.88;;;;;;;13.81;90.40;101216.84;5046058;28;20379;-55
2022/10/26 08:23:08;;;;;;;5.95;3.78;;;;;;;13.83;90.17;101206.91;5048017;28;20025;-51
2022/10/26 08:25:34;;;;;;;12.90;4.43;;;;;;;13.86;90.31;101204.84;5042046;28;20116;-52
2022/10/26 08:28:03;;;;;;;5.82;3.80;;;;;;;13.94;90.76;101220.38;5039147;28;20113;-55
2022/10/26 08:30:29;;;;;;;5.40;3.88;;;;;;;13.95;90.36;101208.69;5043178;28;20020;-53
2022/10/26 08:32:59;;;;;;;8.75;4.00;;;;;;;14.06;90.12;101221.31;5044531;28;20076;-52
2022/10/26 08:35:24;;;;;;;9.68;4.28;;;;;;;14.10;90.54;101228.13;5038638;28;20399;-53
2022/10/26 08:37:51;;;;;;;10.98;4.13;;;;;;;14.18;90.63;101222.25;5045180;28;20124;-54
2022/10/26 08:40:18;;;;;;;11.35;3.88;;;;;;;14.24;90.88;101222.66;5037025;28;20080;-52
2022/10/26 08:42:49;;;;;;;7.60;3.90;;;;;;;14.30;89.97;101218.66;5045905;28;20021;-51
2022/10/26 08:45:30;;;;;;;9.07;4.38;;;;;;;14.45;90.28;101230.94;5044578;28;20084;-54
2022/10/26 08:48:02;;;;;;;8.93;4.00;;;;;;;14.54;90.04;101234.78;5044965;28;20035;-51
2022/10/26 08:50:36;;;;;;;6.22;3.63;;;;;;;14.63;91.13;101228.75;5047908;28;20029;-49
2022/10/26 08:53:29;;;;;;;8.32;3.65;;;;;;;14.68;89.65;101223.06;5040564;28;20021;-50
2022/10/26 08:56:15;;;;;;;7.20;3.88;;;;;;;14.77;89.91;101217.03;5040375;28;20037;-55
2022/10/26 08:58:49;;;;;;;7.32;4.03;;;;;;;14.81;89.46;101188.19;5050824;28;20041;-53
2022/10/26 09:01:15;;;;;;;3.90;3.50;;;;;;;14.99;89.05;101192.97;5034052;28;20030;-54
2022/10/26 09:03:40;;;;;;;10.48;4.13;;;;;;;15.07;88.19;101203.13;5034553;28;20244;-55
2022/10/26 09:06:32;;;;;;;11.18;3.30;;;;;;;15.18;88.27;101205.00;5035370;28;20076;-51
2022/10/26 09:09:16;;;;;;;8.40;3.70;;;;;;;15.36;87.57;101226.84;5034082;28;20139;-56
2022/10/26 09:12:05;;;;;;;9.48;3.90;;;;;;;15.39;87.38;101222.09;5034365;28;20057;-56
2022/10/26 09:14:31;;;;;;;6.17;2.70;;;;;;;15.56;88.17;101244.91;5032905;28;20395;-55
2022/10/26 09:17:07;;;;;;;5.88;3.42;;;;;;;15.69;86.86;101243.97;5035194;28;20314;-55
2022/10/26 09:19:50;;;;;;;7.22;3.30;;;;;;;15.78;85.52;101254.84;5036876;28;20029;-53
2022/10/26 09:22:30;;;;;;;6.57;3.40;;;;;;;15.90;85.77;101259.22;5045671;28;20435;-52
2022/10/26 09:25:00;;;;;;;7.28;3.25;;;;;;;15.99;84.94;101268.38;5035735;28;20025;-54
2022/10/26 09:27:34;;;;;;;8.75;3.45;;;;;;;16.06;84.01;101272.31;5046795;28;20091;-53
2022/10/26 09:30:10;;;;;;;8.60;3.33;;;;;;;16.13;83.75;101280.72;5043251;28;20031;-52
2022/10/26 09:32:45;;;;;;;7.38;3.30;;;;;;;16.26;83.49;101284.09;5039599;28;20464;-54
2022/10/26 09:35:20;;;;;;;8.15;3.15;;;;;;;16.50;83.22;101296.53;5047423;28;20078;-54
2022/10/26 09:38:05;;;;;;;11.18;3.25;;;;;;;16.62;82.03;101292.88;5037581;28;20464;-55
2022/10/26 09:40:35;;;;;;;5.55;2.92;;;;;;;16.62;82.56;101289.31;5047496;28;20222;-55
2022/10/26 09:43:10;;;;;;;5.60;3.05;;;;;;;16.71;81.12;101294.81;5053370;28;20016;-54
2022/10/26 09:45:40;;;;;;;6.32;3.55;;;;;;;16.74;80.02;101304.44;5033951;28;20492;-54
2022/10/26 09:48:08;;;;;;;8.32;3.22;;;;;;;16.72;80.86;101290.28;5034311;28;20022;-54
2022/10/26 09:50:37;;;;;;;8.05;3.30;;;;;;;16.65;80.80;101297.13;5035317;28;20112;-54
2022/10/26 09:53:06;;;;;;;10.55;3.42;;;;;;;16.66;80.55;101294.31;5049799;28;20031;-54
2022/10/26 09:55:33;;;;;;;8.23;3.67;;;;;;;16.70;81.22;101300.28;5053307;28;20029;-54
2022/10/26 09:58:02;;;;;;;6.38;3.22;;;;;;;16.80;81.43;101303.97;5053423;28;20040;-54
2022/10/26 10:00:29;;;;;;;8.38;3.22;;;;;;;16.94;81.00;101310.88;5046830;28;20025;-54
2022/10/26 10:02:56;;;;;;;7.95;3.00;;;;;;;17.10;80.76;101322.09;5033774;28;20104;-54
2022/10/26 10:05:22;;;;;;;6.18;3.10;;;;;;;17.13;80.50;101324.50;5033462;28;20041;-54
2022/10/26 10:07:47;;;;;;;7.43;3.35;;;;;;;17.26;80.24;101302.81;5033125;28;20037;-54
2022/10/26 10:10:18;;;;;;;9.40;3.35;;;;;;;17.56;79.97;101318.22;5031818;28;20441;-54
2022/10/26 10:12:45;;;;;;;7.78;2.90;;;;;;;17.74;78.17;101321.19;5033150;28;20108;-53
2022/10/26 10:15:18;;;;;;;6.82;3.10;;;;;;;17.91;77.12;101323.31;5033063;28;20044;-54
2022/10/26 10:17:50;;;;;;;9.82;3.20;;;;;;;18.10;76.52;101335.16;5033646;28;20040;-55
2022/10/26 10:20:25;;;;;;;4.72;2.83;;;;;;;18.36;76.75;101341.81;5033303;28;20108;-55
2022/10/26 10:23:00;;;;;;;7.05;3.10;;;;;;;18.53;74.55;101356.47;5049879;28;20515;-55
2022/10/26 10:25:35;;;;;;;6.80;3.05;;;;;;;18.66;74.46;101358.94;5051053;28;20028;-55
2022/10/26 10:28:01;;;;;;;6.25;2.85;;;;;;;18.90;72.80;101361.28;5049825;28;20017;-55
2022/10/26 10:30:32;;;;;;;10.40;3.08;;;;;;;19.08;73.07;101366.84;5052029;28;20021;-55
2022/10/26 10:33:09;;;;;;;9.35;2.88;;;;;;;19.35;71.33;101362.63;5049911;28;20633;-55
2022/10/26 10:35:35;;;;;;;7.10;2.88;;;;;;;19.54;71.45;101362.63;5053209;28;20036;-55
2022/10/26 10:38:01;;;;;;;5.07;2.28;;;;;;;19.73;69.08;101370.75;5053273;28;20033;-54
2022/10/26 10:40:30;;;;;;;9.38;2.85;;;;;;;19.96;69.02;101381.22;5052301;28;20377;-55
2022/10/26 10:43:10;;;;;;;7.35;2.72;;;;;;;20.14;68.41;101381.34;5038497;28;20396;-55
2022/10/26 10:45:37;;;;;;;5.88;2.70;;;;;;;20.20;67.16;101384.28;5052648;28;20044;-54
2022/10/26 10:48:11;;;;;;;6.53;2.83;;;;;;;20.40;67.05;101378.84;5052718;28;20138;-55
2022/10/26 10:50:47;;;;;;;7.55;2.88;;;;;;;20.64;66.39;101389.16;5053101;28;20540;-55
2022/10/26 10:53:15;;;;;;;6.93;2.60;;;;;;;20.59;67.35;101386.06;5034074;28;20083;-55
2022/10/26 10:55:50;;;;;;;6.93;2.72;;;;;;;20.76;66.12;101393.38;5031983;28;20453;-55
2022/10/26 10:59:00;;;;;;;6.82;2.65;;;;;;;20.89;66.19;101409.25;5051696;28;20031;-55
2022/10/26 11:01:34;;;;;;;7.72;2.70;;;;;;;20.93;65.07;101413.34;5051834;28;20471;-54
2022/10/26 11:04:24;;;;;;;4.55;2.72;;;;;;;20.58;65.71;101408.69;5052878;28;20021;-55
2022/10/26 11:06:52;;;;;;;5.63;2.40;;;;;;;20.36;66.24;101410.72;5052660;28;20121;-55
2022/10/26 11:09:24;;;;;;;6.13;2.58;;;;;;;20.31;66.16;101412.16;5036396;28;20025;-55
2022/10/26 11:11:54;;;;;;;3.38;2.25;;;;;;;20.22;66.81;101400.38;5046159;28;20045;-55
2022/10/26 11:14:42;;;;;;;7.55;2.50;;;;;;;20.78;67.12;101404.88;5050933;28;20462;-55
2022/10/26 11:18:00;;;;;;;6.00;1.98;;;;;;;21.38;65.05;101423.34;5052138;28;20053;-55
2022/10/26 11:20:28;;;;;;;5.45;2.08;;;;;;;21.47;63.25;101433.28;5035251;28;20044;-55
2022/10/26 11:23:11;;;;;;;4.35;1.95;;;;;;;21.51;64.06;101444.66;5032436;28;20108;-55
2022/10/26 11:26:14;;;;;;;7.22;2.17;;;;;;;21.10;64.62;101441.47;5031611;28;20021;-54
2022/10/26 11:29:06;;;;;;;6.80;2.55;;;;;;;21.03;65.26;101433.09;5032326;28;20029;-54
2022/10/26 11:31:49;;;;;;;6.57;2.00;;;;;;;21.29;64.11;101440.47;5032787;28;20397;-55
2022/10/26 11:34:28;;;;;;;5.55;1.80;;;;;;;21.75;63.26;101442.16;5031973;28;20033;-55
2022/10/26 11:37:07;;;;;;;5.00;1.83;;;;;;;22.42;60.75;101439.00;5032073;28;20051;-55
2022/10/26 11:39:55;;;;;;;3.30;1.73;;;;;;;23.03;60.08;101439.81;5031254;28;20377;-55